Time;durP1;ratioP1;P1;durP2;ratioP2;P2;SDS_P1;SDS_P2;PMS_P1;PMS_P2;Temp;Humidity;BMP_temperature;BMP_pressure;BME280_temperature;BME280_humidity;BME280_pressure;Samples;Min_cycle;Max_cycle;Signal;HPM_P1;HPM_P2
2022/08/12 00:43:06;;;;;;;3.10;2.70;;;;;;;19.29;61.05;94819.38;5033363;28;20642;-83
2022/08/12 00:46:29;;;;;;;4.20;2.70;;;;;;;19.28;60.74;94826.47;4999465;28;20034;-81
2022/08/12 00:48:16;;;;;;;3.58;2.67;;;;;;;19.54;60.61;94864.72;5018575;28;20087;-80
2022/08/12 00:50:42;;;;;;;4.10;3.05;;;;;;;19.29;59.90;94829.91;5015965;28;20038;-80
2022/08/12 00:53:08;;;;;;;3.15;2.83;;;;;;;19.48;59.96;94861.00;4999604;28;20466;-79
2022/08/12 00:55:33;;;;;;;4.65;3.22;;;;;;;19.14;59.87;94809.66;5015774;28;20037;-79
2022/08/12 00:57:59;;;;;;;3.30;2.95;;;;;;;19.24;59.59;94816.47;5015736;28;20026;-79
2022/08/12 01:00:24;;;;;;;3.53;2.92;;;;;;;19.14;59.50;94801.75;5016465;28;20076;-80
2022/08/12 01:02:56;;;;;;;3.05;2.75;;;;;;;19.27;59.41;94824.00;5034241;28;20044;-79
2022/08/12 01:13:38;;;;;;;3.45;2.83;;;;;;;19.36;58.71;94830.81;5032946;28;20502;-79
2022/08/12 01:16:06;;;;;;;3.17;2.78;;;;;;;19.35;58.75;94818.66;4998829;28;20124;-79
2022/08/12 01:18:33;;;;;;;3.40;2.90;;;;;;;19.25;58.87;94818.94;5032630;28;20025;-79
2022/08/12 01:21:07;;;;;;;3.72;2.70;;;;;;;19.61;58.71;94884.06;5033003;28;20037;-79
2022/08/12 01:23:54;;;;;;;3.38;2.88;;;;;;;19.65;58.75;94880.06;5032895;28;20402;-79
2022/08/12 01:26:24;;;;;;;3.15;2.70;;;;;;;19.27;58.84;94834.53;5015015;28;20033;-80
2022/08/12 01:28:57;;;;;;;3.00;2.60;;;;;;;19.26;58.77;94831.09;5032559;28;20029;-79
2022/08/12 01:31:23;;;;;;;4.25;2.80;;;;;;;19.24;58.80;94827.81;5033221;28;20045;-79
2022/08/12 01:33:58;;;;;;;3.15;2.85;;;;;;;19.36;58.77;94841.34;5052945;28;20036;-80
2022/08/12 01:36:25;;;;;;;5.75;3.10;;;;;;;19.61;58.71;94871.72;5035413;28;20029;-80
2022/08/12 01:38:52;;;;;;;3.15;2.60;;;;;;;19.20;58.61;94819.47;5018147;28;20410;-79
2022/08/12 01:41:17;;;;;;;3.25;2.60;;;;;;;19.28;58.57;94829.09;5034986;28;20537;-79
2022/08/12 01:43:43;;;;;;;3.15;2.85;;;;;;;19.24;59.88;94830.44;5034759;28;20029;-79
2022/08/12 01:46:46;;;;;;;3.38;3.08;;;;;;;19.23;60.27;94820.09;5034521;28;20503;-79
2022/08/12 01:49:49;;;;;;;3.50;3.20;;;;;;;19.68;60.88;94877.09;5011959;28;20318;-79
2022/08/12 01:52:51;;;;;;;3.85;3.47;;;;;;;19.37;60.82;94819.28;5052696;28;20071;-79
2022/08/12 01:55:19;;;;;;;3.35;2.60;;;;;;;19.39;60.87;94823.38;5033333;28;20041;-79
2022/08/12 01:57:50;;;;;;;3.13;2.83;;;;;;;19.43;60.52;94821.19;5052299;28;20513;-79
2022/08/12 02:00:16;;;;;;;3.22;2.90;;;;;;;19.78;60.42;94872.38;5052207;28;20037;-79
2022/08/12 02:03:03;;;;;;;3.72;3.30;;;;;;;19.63;61.13;94871.53;5052050;28;20033;-79
2022/08/12 02:12:06;;;;;;;3.13;2.83;;;;;;;19.66;61.08;94862.47;5052327;28;20052;-79
2022/08/12 02:14:44;;;;;;;3.88;2.90;;;;;;;19.70;61.51;94863.75;5033917;28;20474;-79
2022/08/12 02:17:30;;;;;;;2.95;2.65;;;;;;;19.62;60.17;94864.63;5052267;28;20091;-79
2022/08/12 02:20:15;;;;;;;3.28;2.92;;;;;;;19.35;59.90;94829.19;5051736;28;20021;-79
2022/08/12 02:22:43;;;;;;;3.80;2.72;;;;;;;19.23;59.51;94814.84;5034180;28;20053;-79
2022/08/12 02:25:30;;;;;;;3.47;2.80;;;;;;;19.29;59.65;94824.63;5051632;28;20029;-79
2022/08/12 02:27:56;;;;;;;3.65;2.70;;;;;;;19.23;59.29;94820.91;5036618;28;20033;-79
2022/08/12 02:30:23;;;;;;;3.53;2.75;;;;;;;19.16;59.54;94830.50;5051760;28;20181;-79
2022/08/12 02:32:49;;;;;;;3.17;2.88;;;;;;;19.00;60.44;94818.34;5051373;28;20033;-79
2022/08/12 02:35:20;;;;;;;3.10;2.80;;;;;;;19.42;60.27;94883.59;5051469;28;20028;-79
2022/08/12 02:37:46;;;;;;;3.25;2.95;;;;;;;19.27;60.47;94876.66;5033828;28;20092;-79
2022/08/12 02:40:13;;;;;;;4.35;3.15;;;;;;;18.97;60.55;94853.72;5033732;28;20048;-79
2022/08/12 02:42:59;;;;;;;3.58;2.95;;;;;;;18.98;60.25;94831.66;5033410;28;20032;-79
2022/08/12 02:45:51;;;;;;;3.17;2.88;;;;;;;19.32;60.40;94883.03;5051218;28;20031;-79
2022/08/12 02:48:33;;;;;;;3.17;2.72;;;;;;;19.00;60.59;94841.19;5051548;28;20549;-79
2022/08/12 02:51:02;;;;;;;3.50;3.03;;;;;;;18.93;60.51;94822.66;5017064;28;20685;-79
2022/08/12 02:53:28;;;;;;;3.90;2.78;;;;;;;19.06;60.62;94838.69;5050805;28;20036;-79
2022/08/12 02:55:53;;;;;;;4.38;2.75;;;;;;;19.02;60.82;94828.69;5033376;28;20024;-79
2022/08/12 02:58:19;;;;;;;3.20;2.90;;;;;;;19.38;60.67;94878.84;5050995;28;20480;-79
2022/08/12 03:00:44;;;;;;;3.45;2.83;;;;;;;19.01;60.39;94821.78;5016981;28;20029;-79
2022/08/12 03:03:11;;;;;;;3.15;2.67;;;;;;;19.34;60.25;94880.22;5033154;28;20162;-80
2022/08/12 03:05:55;;;;;;;3.08;2.65;;;;;;;19.29;60.51;94883.38;5033504;28;20037;-79
2022/08/12 03:08:23;;;;;;;4.68;2.70;;;;;;;19.30;60.41;94882.38;5033038;28;20037;-79
2022/08/12 03:10:49;;;;;;;3.70;2.67;;;;;;;19.38;60.01;94884.13;5033481;28;20056;-79
2022/08/12 03:13:15;;;;;;;3.05;2.75;;;;;;;19.06;60.07;94825.53;5016493;28;20031;-79
2022/08/12 03:15:40;;;;;;;3.10;2.80;;;;;;;19.06;59.81;94816.81;5032958;28;20033;-79
2022/08/12 03:18:07;;;;;;;6.15;2.95;;;;;;;19.43;60.06;94882.59;5032751;28;20029;-79
2022/08/12 03:20:36;;;;;;;3.13;2.83;;;;;;;19.15;59.59;94821.00;5050585;28;20088;-79
2022/08/12 03:23:02;;;;;;;4.32;2.70;;;;;;;19.10;59.70;94826.78;5050537;28;20082;-79
2022/08/12 03:25:28;;;;;;;5.45;2.80;;;;;;;19.51;59.96;94886.16;5050695;28;20029;-79
2022/08/12 03:27:54;;;;;;;2.92;2.55;;;;;;;19.10;59.76;94821.50;5032791;28;20029;-79
2022/08/12 03:30:24;;;;;;;3.05;2.35;;;;;;;19.25;59.20;94833.88;5050690;28;20029;-79
2022/08/12 03:32:50;;;;;;;3.10;2.72;;;;;;;19.22;59.64;94828.97;5050767;28;20057;-79
2022/08/12 03:35:26;;;;;;;3.83;3.08;;;;;;;19.43;60.28;94900.22;5050507;28;20070;-79
2022/08/12 03:37:55;;;;;;;5.55;3.40;;;;;;;19.36;61.07;94902.75;5050721;28;20027;-79
2022/08/12 04:02:18;;;;;;;3.50;3.20;;;;;;;18.85;70.29;94914.84;5050918;28;20039;-87
2022/08/12 04:04:45;;;;;;;3.55;3.25;;;;;;;18.67;70.17;94860.69;5032151;28;20033;-85
2022/08/12 04:07:11;;;;;;;3.58;3.13;;;;;;;18.67;70.58;94865.13;5032996;28;20125;-86
2022/08/12 04:09:43;;;;;;;5.05;3.35;;;;;;;18.79;70.85;94911.09;5032834;28;20084;-85
2022/08/12 04:14:55;;;;;;;4.13;3.50;;;;;;;18.73;71.78;94909.97;5035430;28;20167;-85
2022/08/12 04:17:21;;;;;;;5.10;3.33;;;;;;;18.56;71.56;94899.72;5017049;28;20056;-85
2022/08/12 04:19:47;;;;;;;5.40;3.50;;;;;;;18.34;71.87;94870.59;5015917;28;20555;-85
2022/08/12 04:22:13;;;;;;;4.03;3.38;;;;;;;18.65;72.22;94917.91;5016471;28;20043;-86
2022/08/12 04:24:38;;;;;;;6.38;3.38;;;;;;;18.39;70.76;94870.06;5032883;28;20036;-85
2022/08/12 04:27:07;;;;;;;4.63;3.60;;;;;;;18.40;71.84;94879.59;5016476;28;20053;-85
2022/08/12 04:29:33;;;;;;;4.78;3.75;;;;;;;18.64;72.18;94920.72;5016423;28;20029;-85
2022/08/12 04:31:58;;;;;;;4.22;3.53;;;;;;;18.47;71.90;94891.88;5016508;28;20489;-86
2022/08/12 04:34:24;;;;;;;4.40;3.47;;;;;;;18.64;71.65;94916.28;5016673;28;20029;-85
2022/08/12 04:36:50;;;;;;;4.03;3.60;;;;;;;18.62;71.96;94913.00;5032693;28;20036;-85
2022/08/12 04:39:15;;;;;;;4.05;3.38;;;;;;;18.26;70.90;94853.03;5032212;28;20120;-85
2022/08/12 04:41:41;;;;;;;4.72;3.45;;;;;;;18.39;70.91;94886.66;5032574;28;20037;-84
2022/08/12 04:44:07;;;;;;;4.63;3.50;;;;;;;18.38;70.78;94886.84;5015019;28;20033;-84
2022/08/12 04:46:33;;;;;;;4.88;3.55;;;;;;;18.07;71.21;94840.31;5034768;28;20041;-85
2022/08/12 04:48:59;;;;;;;4.82;3.60;;;;;;;18.37;71.81;94898.34;5053285;28;20028;-85
2022/08/12 04:51:25;;;;;;;4.60;3.40;;;;;;;18.43;72.18;94889.75;5036273;28;20048;-85
2022/08/12 04:53:50;;;;;;;5.15;3.45;;;;;;;18.53;72.38;94908.78;5018756;28;20127;-84
2022/08/12 04:56:16;;;;;;;4.05;3.50;;;;;;;18.04;71.78;94830.16;5037077;28;20040;-84
2022/08/12 04:58:41;;;;;;;3.83;3.53;;;;;;;18.41;71.95;94884.66;5019051;28;20514;-84
2022/08/12 05:01:07;;;;;;;3.95;3.55;;;;;;;18.23;72.15;94842.06;5035189;28;20063;-84
2022/08/12 05:03:34;;;;;;;4.43;3.40;;;;;;;18.29;72.17;94844.00;5035425;28;20068;-84
2022/08/12 05:06:00;;;;;;;6.82;3.05;;;;;;;18.24;72.21;94857.66;5035767;28;20032;-83
2022/08/12 05:08:26;;;;;;;4.10;3.70;;;;;;;18.49;72.14;94902.22;5018860;28;20399;-84
2022/08/12 05:10:51;;;;;;;3.70;3.30;;;;;;;18.20;72.31;94858.19;5015287;28;20228;-84
2022/08/12 05:13:26;;;;;;;3.97;3.40;;;;;;;18.05;71.63;94831.78;5032501;28;20030;-84
2022/08/12 05:15:51;;;;;;;5.80;3.60;;;;;;;18.15;71.10;94847.34;5032532;28;20479;-84
2022/08/12 05:18:17;;;;;;;4.20;3.80;;;;;;;18.06;71.82;94857.09;5032051;28;20105;-84
2022/08/12 05:20:43;;;;;;;4.82;4.05;;;;;;;18.34;72.40;94909.22;5014606;28;20037;-84
2022/08/12 05:23:10;;;;;;;4.65;3.85;;;;;;;18.22;74.12;94911.38;5024006;28;20041;-83
2022/08/12 05:25:35;;;;;;;5.38;4.32;;;;;;;17.99;74.88;94867.47;5030518;28;20041;-84
2022/08/12 05:28:02;;;;;;;4.85;4.30;;;;;;;18.37;74.75;94922.03;5031863;28;20033;-85
2022/08/12 05:30:29;;;;;;;4.40;4.00;;;;;;;18.42;76.43;94919.69;5031777;28;20091;-85
2022/08/12 05:32:56;;;;;;;4.40;4.00;;;;;;;18.33;75.81;94907.56;5014723;28;20045;-85
2022/08/12 05:35:21;;;;;;;4.03;3.65;;;;;;;18.48;75.34;94921.63;5015200;28;20124;-84
2022/08/12 05:37:47;;;;;;;4.10;3.70;;;;;;;17.98;74.88;94880.78;5031495;28;20120;-84
2022/08/12 05:40:12;;;;;;;4.60;4.20;;;;;;;18.27;74.61;94927.47;5013232;28;20503;-84
2022/08/12 05:42:38;;;;;;;4.03;3.63;;;;;;;18.38;75.71;94927.09;5023963;28;20022;-85
2022/08/12 05:45:04;;;;;;;4.80;4.07;;;;;;;18.42;75.60;94919.69;5028627;28;20403;-85
2022/08/12 05:47:30;;;;;;;4.13;3.72;;;;;;;18.38;75.09;94881.56;5028323;28;20021;-78
2022/08/12 05:49:55;;;;;;;4.47;4.07;;;;;;;18.62;73.55;94925.34;5026507;28;20419;-78
2022/08/12 05:52:21;;;;;;;5.57;4.55;;;;;;;18.30;73.50;94869.28;5023800;28;20388;-78
2022/08/12 05:54:47;;;;;;;4.57;4.10;;;;;;;18.53;75.05;94874.59;5032561;28;20027;-77
2022/08/12 05:57:12;;;;;;;4.20;3.80;;;;;;;18.89;75.16;94924.03;5026825;28;20191;-79
2022/08/12 05:59:39;;;;;;;4.55;3.63;;;;;;;18.73;74.68;94909.97;5024933;28;20117;-78
2022/08/12 06:02:06;;;;;;;3.97;3.42;;;;;;;18.86;74.82;94924.38;5029035;28;20029;-80
2022/08/12 06:04:32;;;;;;;4.00;3.60;;;;;;;18.74;74.73;94903.72;5028860;28;20104;-83
2022/08/12 06:07:00;;;;;;;5.07;3.50;;;;;;;18.41;71.45;94836.50;4996918;28;20049;-82
2022/08/12 06:09:27;;;;;;;3.97;3.58;;;;;;;18.47;71.48;94846.31;5022012;28;20129;-82
2022/08/12 06:11:53;;;;;;;3.70;3.28;;;;;;;18.80;72.42;94901.38;5028849;28;20040;-83
2022/08/12 06:14:22;;;;;;;4.72;4.20;;;;;;;18.79;73.07;94886.59;5010548;28;20042;-82
2022/08/12 06:16:50;;;;;;;6.75;4.50;;;;;;;18.73;72.95;94840.72;5027480;28;20416;-83
2022/08/12 06:19:19;;;;;;;5.20;4.63;;;;;;;18.84;72.05;94852.69;5014963;28;20079;-83
2022/08/12 06:21:47;;;;;;;5.43;4.75;;;;;;;18.85;71.55;94864.84;5009985;28;20056;-83
2022/08/12 06:24:14;;;;;;;6.32;5.30;;;;;;;18.76;72.36;94850.94;5021220;28;20036;-83
2022/08/12 06:44:35;;;;;;;5.05;4.18;;;;;;;19.72;68.12;94874.91;5127716;27;20650;-81
2022/08/12 06:47:01;;;;;;;5.97;4.95;;;;;;;20.00;69.72;94901.44;5089721;28;20036;-83
2022/08/12 06:49:29;;;;;;;5.93;5.00;;;;;;;19.87;70.10;94881.00;5033275;28;20035;-82
2022/08/12 06:51:57;;;;;;;5.40;4.90;;;;;;;19.64;68.06;94845.00;5040954;28;20394;-82
2022/08/12 06:54:25;;;;;;;5.97;4.55;;;;;;;19.76;69.91;94871.75;5051525;28;20099;-82
2022/08/12 06:56:51;;;;;;;5.55;4.50;;;;;;;19.97;69.31;94893.91;5033607;28;20102;-82
2022/08/12 06:59:19;;;;;;;4.85;4.45;;;;;;;19.69;68.50;94830.47;5067167;28;20106;-82
2022/08/12 07:01:46;;;;;;;6.10;5.07;;;;;;;19.91;69.28;94866.47;5067252;28;20080;-81
2022/08/12 07:04:13;;;;;;;5.97;5.05;;;;;;;20.16;69.28;94876.72;5084735;28;20029;-80
2022/08/12 07:06:39;;;;;;;6.45;5.38;;;;;;;20.40;68.29;94896.69;5071057;28;20024;-82
2022/08/12 07:09:05;;;;;;;8.52;5.13;;;;;;;20.31;68.06;94866.97;5082208;28;20039;-81
2022/08/12 07:11:32;;;;;;;6.57;5.93;;;;;;;20.45;68.63;94867.94;5066436;28;20144;-82
2022/08/12 07:13:59;;;;;;;7.07;6.15;;;;;;;20.53;68.27;94857.25;5064737;28;20036;-81
2022/08/12 07:16:27;;;;;;;8.15;6.03;;;;;;;20.60;68.02;94855.50;5040947;28;20548;-81
2022/08/12 07:18:54;;;;;;;6.13;5.38;;;;;;;21.17;67.17;94914.53;5083716;28;20037;-82
2022/08/12 07:21:19;;;;;;;4.53;4.13;;;;;;;21.08;64.90;94870.78;5053173;28;20115;-81
2022/08/12 07:23:46;;;;;;;6.22;4.75;;;;;;;21.36;65.06;94911.22;5050520;28;20410;-82
2022/08/12 07:26:15;;;;;;;3.67;3.38;;;;;;;21.44;61.07;94894.47;5065512;28;20131;-81
2022/08/12 07:28:42;;;;;;;3.30;3.00;;;;;;;21.43;59.55;94871.69;5074115;28;20500;-81
2022/08/12 07:31:08;;;;;;;3.60;2.92;;;;;;;21.36;57.93;94847.81;5066653;28;20489;-81
2022/08/12 07:33:39;;;;;;;3.15;2.85;;;;;;;21.32;60.89;94822.81;5066590;28;20035;-81
2022/08/12 07:36:10;;;;;;;3.67;2.60;;;;;;;21.73;59.73;94856.44;5034448;28;20033;-82
2022/08/12 07:38:45;;;;;;;3.58;2.75;;;;;;;21.79;58.00;94860.13;5077129;28;20079;-82
2022/08/12 07:41:18;;;;;;;4.25;2.78;;;;;;;22.24;56.78;94902.91;5045927;28;20107;-82
2022/08/12 07:43:55;;;;;;;2.78;2.47;;;;;;;22.03;57.35;94874.69;5044172;28;20053;-82
2022/08/12 07:46:35;;;;;;;3.20;2.90;;;;;;;22.43;57.67;94898.72;5033460;28;20024;-82
2022/08/12 07:49:03;;;;;;;2.92;2.65;;;;;;;22.34;58.35;94841.66;5050627;28;20482;-82
2022/08/12 07:51:29;;;;;;;3.35;2.80;;;;;;;22.79;55.48;94876.38;5036124;28;20044;-82
2022/08/12 07:53:56;;;;;;;4.47;2.88;;;;;;;22.82;54.70;94846.88;5061484;28;20029;-87
2022/08/12 07:56:22;;;;;;;4.13;2.80;;;;;;;23.09;54.67;94864.44;5051301;28;20044;-87
2022/08/12 07:58:47;;;;;;;3.00;2.70;;;;;;;23.11;52.41;94875.66;5034683;28;20029;-87
2022/08/12 08:01:20;;;;;;;3.72;2.72;;;;;;;23.53;51.65;94899.31;5019458;28;20037;-87
2022/08/12 08:06:33;;;;;;;4.63;3.40;;;;;;;23.40;52.35;94873.59;5031409;28;20690;-83
2022/08/12 08:08:59;;;;;;;3.65;2.65;;;;;;;23.22;49.96;94838.97;5049529;28;20032;-86
2022/08/12 08:14:09;;;;;;;3.95;3.17;;;;;;;23.71;50.14;94843.00;5049169;28;20043;-86
2022/08/12 08:16:36;;;;;;;4.78;3.47;;;;;;;24.16;50.63;94872.28;4999015;28;20037;-87
2022/08/12 08:19:05;;;;;;;4.93;3.75;;;;;;;24.26;52.46;94862.00;5018198;28;20413;-86
2022/08/12 08:21:34;;;;;;;6.38;3.80;;;;;;;24.05;48.65;94866.59;5051455;28;20090;-86
2022/08/12 08:24:15;;;;;;;4.45;4.05;;;;;;;23.98;49.95;94857.81;5029534;28;20053;-86
2022/08/12 08:26:49;;;;;;;3.65;3.30;;;;;;;24.29;50.19;94862.44;5021226;28;20040;-86
2022/08/12 08:29:15;;;;;;;5.45;3.65;;;;;;;24.56;49.78;94869.47;5016929;28;20191;-86
2022/08/12 08:31:42;;;;;;;5.03;3.40;;;;;;;24.55;48.58;94871.31;5012997;28;20044;-86
2022/08/12 08:34:11;;;;;;;5.78;3.60;;;;;;;24.39;49.90;94814.19;5016316;28;20040;-87
2022/08/12 08:36:38;;;;;;;4.70;3.47;;;;;;;24.35;49.70;94847.50;5018826;28;20028;-87
2022/08/12 08:39:04;;;;;;;4.18;3.65;;;;;;;24.54;48.11;94824.53;5047171;28;20029;-87
2022/08/12 08:44:13;;;;;;;7.70;3.63;;;;;;;25.08;47.90;94844.41;5055802;28;20055;-86
2022/08/12 08:46:39;;;;;;;5.20;3.35;;;;;;;25.03;46.06;94841.59;5048321;28;20029;-86
2022/08/12 08:49:05;;;;;;;4.22;3.83;;;;;;;24.90;45.82;94807.16;5048662;28;20028;-86
2022/08/12 08:51:30;;;;;;;6.25;4.10;;;;;;;25.16;46.39;94822.13;5027521;28;20563;-86
2022/08/12 08:53:56;;;;;;;4.10;3.60;;;;;;;25.15;47.34;94802.66;5024329;28;20036;-86
2022/08/12 08:56:22;;;;;;;4.40;3.50;;;;;;;25.09;45.08;94829.28;5032989;28;20462;-86
2022/08/12 08:58:48;;;;;;;4.38;3.28;;;;;;;24.59;45.74;94784.88;5016685;28;20048;-84
2022/08/12 09:01:19;;;;;;;4.75;3.90;;;;;;;24.83;46.35;94814.38;5032948;28;20526;-84
2022/08/12 09:03:45;;;;;;;5.53;3.38;;;;;;;25.11;46.86;94840.53;5034927;28;20116;-87
2022/08/12 09:06:11;;;;;;;3.75;3.13;;;;;;;24.96;44.23;94817.75;5051000;28;20108;-85
2022/08/12 09:08:37;;;;;;;3.90;3.40;;;;;;;25.14;44.99;94830.28;4999642;28;20508;-84
2022/08/12 09:13:26;;;;;;;4.07;2.90;;;;;;;24.97;44.32;94800.75;5015136;28;20029;-84
2022/08/12 09:13:48;;;;;;;3.58;3.20;;;;;;;24.86;44.87;94782.88;5049338;28;20059;-85
2022/08/12 09:16:16;;;;;;;3.90;3.10;;;;;;;25.27;44.76;94816.09;4998779;28;20036;-85
2022/08/12 09:18:42;;;;;;;3.97;2.95;;;;;;;25.02;43.98;94754.09;5031499;28;20380;-85
2022/08/12 09:21:08;;;;;;;4.03;3.00;;;;;;;25.59;44.75;94824.75;5050309;28;20060;-85
2022/08/12 09:23:35;;;;;;;3.00;2.70;;;;;;;25.42;42.66;94779.31;5033380;28;20116;-85
2022/08/12 09:26:01;;;;;;;4.53;2.80;;;;;;;25.72;42.07;94791.91;5051442;28;20025;-85
2022/08/12 09:28:31;;;;;;;3.75;3.08;;;;;;;25.63;42.09;94819.81;5016969;28;20083;-85
2022/08/12 09:30:57;;;;;;;;;;;;;;;25.57;40.52;94818.03;5018116;28;20041;-85
2022/08/12 09:33:27;;;;;;;5.65;2.40;;;;;;;25.47;40.95;94785.84;5033631;28;19913;-85
2022/08/12 09:35:53;;;;;;;;;;;;;;;25.76;41.42;94822.34;5017927;28;20037;-86
2022/08/12 09:38:18;;;;;;;3.83;2.75;;;;;;;25.90;41.23;94820.38;5033463;28;20291;-85
2022/08/12 09:40:44;;;;;;;4.97;2.95;;;;;;;25.86;40.95;94797.94;5051238;28;20056;-85
2022/08/12 09:45:53;;;;;;;3.60;2.40;;;;;;;25.82;40.04;94768.25;5035818;28;20124;-85
2022/08/12 09:48:19;;;;;;;3.50;3.20;;;;;;;25.90;41.11;94777.81;5016708;28;20033;-85
2022/08/12 09:50:48;;;;;;;4.22;2.67;;;;;;;26.16;39.95;94808.63;5033257;28;20035;-85
2022/08/12 09:53:15;;;;;;;2.65;2.40;;;;;;;26.16;41.14;94805.97;5017549;28;20025;-86
2022/08/12 09:55:46;;;;;;;3.20;2.53;;;;;;;26.09;40.97;94783.94;5033072;28;20422;-84
2022/08/12 09:58:15;;;;;;;3.88;2.40;;;;;;;26.24;39.15;94795.00;5017689;28;20029;-85
2022/08/12 10:00:45;;;;;;;3.00;2.70;;;;;;;26.44;40.50;94799.22;5033110;28;20090;-85
2022/08/12 10:03:11;;;;;;;2.97;2.50;;;;;;;26.50;39.51;94798.34;5017107;28;20438;-86
2022/08/12 10:05:43;;;;;;;3.97;2.50;;;;;;;26.62;40.18;94803.75;5000332;28;20060;-85
2022/08/12 10:08:10;;;;;;;2.85;2.53;;;;;;;26.79;39.87;94798.56;5000523;28;20411;-85
2022/08/12 10:13:40;;;;;;;3.00;2.70;;;;;;;26.55;40.00;94753.25;5016863;28;20029;-85
2022/08/12 10:13:43;;;;;;;4.07;2.85;;;;;;;26.86;39.47;94775.31;5021937;28;20049;-85
2022/08/12 10:16:17;;;;;;;2.50;2.30;;;;;;;27.17;38.65;94788.34;5050602;28;20056;-85
2022/08/12 10:18:52;;;;;;;3.67;2.60;;;;;;;27.11;36.96;94785.78;5050535;28;20033;-84
2022/08/12 10:21:25;;;;;;;3.60;2.60;;;;;;;27.05;38.09;94757.34;5032722;28;20516;-85
2022/08/12 10:23:51;;;;;;;6.43;2.25;;;;;;;27.20;37.80;94775.63;5017596;28;20033;-86
2022/08/12 10:31:52;;;;;;;3.20;2.80;;;;;;;27.18;36.70;94765.16;5029642;28;20525;-83
2022/08/12 10:34:23;;;;;;;3.22;2.50;;;;;;;26.71;35.63;94728.59;5033571;28;20029;-84
2022/08/12 10:36:50;;;;;;;2.95;2.45;;;;;;;27.03;36.35;94760.28;5018003;28;20491;-91
2022/08/12 10:39:17;;;;;;;4.22;2.75;;;;;;;27.04;36.64;94767.22;5016395;28;20041;-82
2022/08/12 10:44:28;;;;;;;2.55;2.30;;;;;;;26.94;36.43;94724.31;5023389;28;20132;-85
2022/08/12 10:46:54;;;;;;;3.63;2.17;;;;;;;26.99;35.94;94732.44;5047760;28;20486;-85
2022/08/12 10:49:19;;;;;;;2.97;2.38;;;;;;;27.14;36.54;94756.81;5048400;28;20032;-84
2022/08/12 10:51:47;;;;;;;3.88;2.70;;;;;;;27.18;36.11;94752.66;5049181;28;20194;-85
2022/08/12 10:54:15;;;;;;;3.33;2.30;;;;;;;27.15;36.72;94747.75;5015651;28;20059;-85
2022/08/12 10:56:44;;;;;;;3.05;2.70;;;;;;;27.30;36.95;94750.00;5014941;28;20033;-85
2022/08/12 10:59:09;;;;;;;3.00;2.58;;;;;;;27.34;36.29;94753.00;5031821;28;20028;-85
2022/08/12 11:01:35;;;;;;;3.95;2.70;;;;;;;27.26;36.22;94732.81;5048013;28;20365;-85
2022/08/12 11:04:01;;;;;;;3.70;2.65;;;;;;;27.48;35.93;94737.56;5047004;28;20025;-84
2022/08/12 11:06:26;;;;;;;4.72;2.47;;;;;;;27.33;36.13;94706.03;5030286;28;20055;-85
2022/08/12 11:08:53;;;;;;;3.40;2.58;;;;;;;27.24;36.23;94684.25;5030015;28;20550;-85
2022/08/12 11:11:19;;;;;;;3.53;2.47;;;;;;;27.58;36.13;94729.75;5030655;28;20029;-86
2022/08/12 11:13:45;;;;;;;3.47;2.60;;;;;;;27.39;35.59;94705.94;5030455;28;20422;-85
2022/08/12 11:16:12;;;;;;;4.57;3.05;;;;;;;27.55;35.82;94724.91;5013476;28;20115;-86
2022/08/12 11:18:38;;;;;;;3.45;3.00;;;;;;;27.61;34.81;94735.47;5027785;28;20035;-82
2022/08/12 11:21:04;;;;;;;3.30;2.63;;;;;;;27.46;34.65;94723.66;5014341;28;20171;-84
2022/08/12 11:23:29;;;;;;;4.53;2.70;;;;;;;27.36;35.85;94700.25;5015565;28;20487;-85
2022/08/12 11:25:55;;;;;;;3.58;2.60;;;;;;;27.39;35.77;94724.59;5051953;28;20589;-84
2022/08/12 11:28:21;;;;;;;4.65;2.60;;;;;;;27.11;35.95;94692.47;5028994;28;20024;-84
2022/08/12 11:30:46;;;;;;;4.93;2.92;;;;;;;27.23;36.07;94714.63;5034098;28;20126;-84
2022/08/12 11:33:12;;;;;;;4.45;3.00;;;;;;;27.28;37.48;94729.94;5034763;28;20039;-84
2022/08/12 11:35:41;;;;;;;3.50;3.20;;;;;;;27.09;38.07;94711.38;5049232;28;20033;-85
2022/08/12 11:38:07;;;;;;;4.30;3.25;;;;;;;27.03;39.03;94724.81;5035818;28;20084;-84
2022/08/12 11:40:32;;;;;;;3.15;2.85;;;;;;;26.79;38.84;94732.78;5018940;28;20033;-85
2022/08/12 11:42:59;;;;;;;4.70;2.72;;;;;;;26.55;38.89;94683.16;5002880;28;20049;-85
2022/08/12 11:45:28;;;;;;;4.07;3.00;;;;;;;26.43;39.57;94691.09;5065835;28;20499;-84
2022/08/12 11:47:54;;;;;;;4.00;3.22;;;;;;;26.59;40.11;94709.13;5033614;28;20565;-85
2022/08/12 11:50:20;;;;;;;5.90;3.05;;;;;;;26.65;40.62;94740.16;5035224;28;20041;-84
2022/08/12 11:52:47;;;;;;;3.55;3.13;;;;;;;26.46;40.89;94728.72;5021328;28;20044;-84
2022/08/12 11:55:12;;;;;;;3.50;3.10;;;;;;;26.39;40.97;94732.56;5051519;28;20036;-85
2022/08/12 11:57:54;;;;;;;3.42;2.78;;;;;;;25.94;41.58;94682.41;5038041;28;20029;-85
2022/08/12 12:00:20;;;;;;;3.45;2.90;;;;;;;26.22;41.95;94733.19;5033851;28;20139;-84
2022/08/12 12:02:46;;;;;;;4.55;3.08;;;;;;;26.26;42.43;94721.03;5018022;28;20060;-85
2022/08/12 12:05:11;;;;;;;3.13;2.80;;;;;;;26.32;41.63;94726.50;5033469;28;20486;-85
2022/08/12 12:07:43;;;;;;;3.92;2.95;;;;;;;26.18;40.55;94700.06;5038240;28;20029;-84
2022/08/12 12:10:10;;;;;;;3.83;2.63;;;;;;;26.39;40.51;94728.03;5034589;28;20108;-85
2022/08/12 12:12:36;;;;;;;4.63;2.80;;;;;;;26.11;40.39;94736.63;5049184;28;20063;-85
2022/08/12 12:15:03;;;;;;;3.35;2.78;;;;;;;25.87;40.26;94698.44;5029452;28;20518;-85
2022/08/12 12:17:28;;;;;;;3.15;2.85;;;;;;;25.95;41.17;94705.31;5053769;28;20449;-84
2022/08/12 12:19:54;;;;;;;4.43;3.60;;;;;;;25.93;41.53;94723.34;5053138;28;20106;-84
2022/08/12 12:22:20;;;;;;;3.65;3.10;;;;;;;25.74;40.83;94703.91;5050260;28;20063;-83
2022/08/12 12:24:46;;;;;;;4.88;2.92;;;;;;;25.69;40.73;94688.63;5040334;28;20062;-84
2022/08/12 12:27:12;;;;;;;3.85;3.30;;;;;;;26.02;41.27;94738.78;5038092;28;20052;-84
2022/08/12 12:29:37;;;;;;;3.40;2.95;;;;;;;25.74;41.36;94686.13;5054440;28;20035;-83
2022/08/12 12:32:03;;;;;;;3.45;3.10;;;;;;;25.87;39.26;94687.00;5047880;28;20051;-84
2022/08/12 12:34:28;;;;;;;3.53;2.80;;;;;;;25.84;39.98;94683.75;5051708;28;20017;-84
2022/08/12 12:36:54;;;;;;;3.92;2.90;;;;;;;25.92;40.43;94713.75;5034245;28;20694;-84
2022/08/12 12:39:20;;;;;;;5.40;3.22;;;;;;;25.68;40.17;94691.50;5054646;28;20029;-84
2022/08/12 12:41:45;;;;;;;8.07;3.42;;;;;;;25.21;42.48;94689.34;5034817;28;20036;-84
2022/08/12 12:44:11;;;;;;;5.35;3.75;;;;;;;25.25;43.70;94698.53;5049582;28;20053;-84
2022/08/12 12:46:36;;;;;;;4.50;3.83;;;;;;;24.97;44.47;94686.50;5024997;28;20414;-84
2022/08/12 12:49:02;;;;;;;4.80;3.63;;;;;;;24.69;48.35;94684.31;5019625;28;20028;-84
2022/08/12 12:51:27;;;;;;;4.32;3.47;;;;;;;24.25;44.88;94661.38;5060664;28;20031;-88
2022/08/12 12:53:54;;;;;;;3.88;3.40;;;;;;;24.56;46.51;94726.09;4999833;28;20426;-83
2022/08/12 12:56:24;;;;;;;6.63;3.60;;;;;;;24.43;45.53;94701.28;5049615;28;20060;-86
2022/08/12 12:58:50;;;;;;;4.78;3.50;;;;;;;24.37;44.88;94707.41;5049934;28;20031;-84
2022/08/12 13:01:25;;;;;;;4.40;3.60;;;;;;;24.67;44.95;94714.78;5023876;28;20417;-85
2022/08/12 13:03:55;;;;;;;4.20;3.33;;;;;;;24.49;44.75;94644.66;5034587;28;20177;-85
2022/08/12 13:06:24;;;;;;;4.47;3.22;;;;;;;24.88;43.32;94674.56;5035176;28;20469;-84
2022/08/12 13:08:52;;;;;;;7.88;3.65;;;;;;;25.25;44.43;94706.50;5018864;28;20052;-85
2022/08/12 13:11:20;;;;;;;4.38;3.65;;;;;;;24.87;41.32;94664.94;5033529;28;20036;-84
2022/08/12 13:13:47;;;;;;;4.68;3.65;;;;;;;24.76;42.50;94615.19;5032729;28;20501;-84
2022/08/12 13:16:19;;;;;;;4.15;3.28;;;;;;;25.32;41.70;94701.09;5061371;28;20037;-84
2022/08/12 13:18:46;;;;;;;4.13;3.10;;;;;;;25.41;42.37;94689.97;5048248;28;20083;-83
2022/08/12 13:21:16;;;;;;;3.03;2.72;;;;;;;25.29;42.48;94638.56;5017005;28;20040;-84
2022/08/12 13:23:44;;;;;;;2.85;2.55;;;;;;;24.87;40.37;94641.03;5037181;28;20029;-84
2022/08/12 13:26:11;;;;;;;3.10;2.67;;;;;;;25.13;40.84;94655.91;5031987;28;20033;-85
2022/08/12 13:28:36;;;;;;;3.78;3.38;;;;;;;24.88;41.51;94626.75;5028386;28;20033;-84
2022/08/12 13:31:02;;;;;;;4.97;3.40;;;;;;;25.09;43.04;94656.56;5050823;28;20029;-83
2022/08/12 13:33:28;;;;;;;3.80;3.25;;;;;;;25.00;41.47;94656.03;5032885;28;20478;-83
2022/08/12 13:35:59;;;;;;;4.38;3.22;;;;;;;25.07;43.57;94693.16;5013637;28;20534;-84
2022/08/12 13:38:43;;;;;;;4.88;3.00;;;;;;;24.89;45.39;94707.25;5032062;28;20479;-84